Time;durP1;ratioP1;P1;durP2;ratioP2;P2;SDS_P1;SDS_P2;PMS_P1;PMS_P2;Temp;Humidity;BMP_temperature;BMP_pressure;BME280_temperature;BME280_humidity;BME280_pressure;Samples;Min_cycle;Max_cycle;Signal;HPM_P1;HPM_P2
2023/03/06 00:00:39;;;;;;;1.10;0.70;;;;;;;;;;5046350;28;20198;-71
2023/03/06 00:03:05;;;;;;;0.97;0.73;;;;;;;;;;5044089;28;20422;-71
2023/03/06 00:05:30;;;;;;;0.80;0.70;;;;;;;;;;5041634;28;20196;-71
2023/03/06 00:07:56;;;;;;;1.10;0.90;;;;;;;;;;5044263;28;20233;-71
2023/03/06 00:10:23;;;;;;;1.03;0.80;;;;;;;;;;5045483;28;20572;-71
2023/03/06 00:12:52;;;;;;;1.43;0.57;;;;;;;;;;5042595;28;20215;-71
2023/03/06 00:15:17;;;;;;;0.80;0.60;;;;;;;;;;5044630;28;20549;-71
2023/03/06 00:17:43;;;;;;;1.00;0.70;;;;;;;;;;5041642;28;20517;-71
2023/03/06 00:20:10;;;;;;;1.00;0.60;;;;;;;;;;5035716;28;20188;-71
2023/03/06 00:22:36;;;;;;;1.27;0.77;;;;;;;;;;5034390;28;20199;-71
2023/03/06 00:25:01;;;;;;;0.90;0.60;;;;;;;;;;5035059;28;20432;-72
2023/03/06 00:27:26;;;;;;;1.00;0.90;;;;;;;;;;5023574;28;20190;-71
2023/03/06 00:29:55;;;;;;;2.23;0.80;;;;;;;;;;5031197;28;20184;-72
2023/03/06 00:32:21;;;;;;;0.87;0.60;;;;;;;;;;5029638;28;20350;-72
2023/03/06 00:34:49;;;;;;;1.40;0.70;;;;;;;;;;5035398;28;20980;-72
2023/03/06 00:37:15;;;;;;;0.80;0.80;;;;;;;;;;5035332;28;20278;-72
2023/03/06 00:39:40;;;;;;;1.00;0.80;;;;;;;;;;5039119;28;20878;-72
2023/03/06 00:42:05;;;;;;;1.70;0.80;;;;;;;;;;5041023;28;20218;-72
2023/03/06 00:44:31;;;;;;;0.80;0.80;;;;;;;;;;5041707;28;20183;-72
2023/03/06 00:46:56;;;;;;;0.70;0.70;;;;;;;;;;5041432;28;20711;-72
2023/03/06 00:49:21;;;;;;;1.57;0.60;;;;;;;;;;5038139;28;20179;-72
2023/03/06 00:51:46;;;;;;;0.70;0.70;;;;;;;;;;5044380;28;20199;-72
2023/03/06 00:54:12;;;;;;;0.70;0.70;;;;;;;;;;5046838;28;20219;-72
2023/03/06 00:56:37;;;;;;;1.10;0.90;;;;;;;;;;5046505;28;20187;-72
2023/03/06 00:59:02;;;;;;;0.80;0.70;;;;;;;;;;5044730;28;20246;-72
2023/03/06 01:01:28;;;;;;;0.90;0.80;;;;;;;;;;5046287;28;20187;-72
2023/03/06 01:03:53;;;;;;;0.93;0.63;;;;;;;;;;5043759;28;20586;-72
2023/03/06 01:06:18;;;;;;;0.70;0.70;;;;;;;;;;5037499;28;20564;-71
2023/03/06 01:08:44;;;;;;;1.10;0.90;;;;;;;;;;5041472;28;20310;-72
2023/03/06 01:11:09;;;;;;;1.73;0.90;;;;;;;;;;5039030;28;20195;-71
2023/03/06 01:13:34;;;;;;;0.80;0.70;;;;;;;;;;5043145;28;20180;-72
2023/03/06 01:16:07;;;;;;;1.07;0.73;;;;;;;;;;5044467;28;20575;-71
2023/03/06 01:18:32;;;;;;;1.47;0.80;;;;;;;;;;5043008;28;20554;-72
2023/03/06 01:20:57;;;;;;;0.90;0.70;;;;;;;;;;5039560;28;20501;-72
2023/03/06 01:23:22;;;;;;;1.10;0.90;;;;;;;;;;5036335;28;20753;-72
2023/03/06 01:25:48;;;;;;;1.30;0.90;;;;;;;;;;5039640;28;20196;-72
2023/03/06 01:28:13;;;;;;;0.83;0.80;;;;;;;;;;5039745;28;20191;-72
2023/03/06 01:30:38;;;;;;;1.23;1.00;;;;;;;;;;5050104;28;20195;-72
2023/03/06 01:33:04;;;;;;;0.90;0.90;;;;;;;;;;5051496;28;20740;-72
2023/03/06 01:35:29;;;;;;;0.80;0.80;;;;;;;;;;5048009;28;20290;-72
2023/03/06 01:37:54;;;;;;;0.80;0.80;;;;;;;;;;5045592;28;20187;-72
2023/03/06 01:40:20;;;;;;;1.17;0.70;;;;;;;;;;5045731;28;20277;-72
2023/03/06 01:42:46;;;;;;;1.53;0.70;;;;;;;;;;5044321;28;20177;-72
2023/03/06 01:45:11;;;;;;;0.70;0.70;;;;;;;;;;5041515;28;20195;-72
2023/03/06 01:47:37;;;;;;;1.23;0.80;;;;;;;;;;5044042;28;20491;-72
2023/03/06 01:50:03;;;;;;;1.17;0.60;;;;;;;;;;5047700;28;20325;-72
2023/03/06 01:52:31;;;;;;;0.70;0.70;;;;;;;;;;5041478;28;20181;-72
2023/03/06 01:55:01;;;;;;;1.30;0.70;;;;;;;;;;5040448;28;20897;-72
2023/03/06 01:57:32;;;;;;;0.70;0.63;;;;;;;;;;5038495;28;20505;-72
2023/03/06 02:00:00;;;;;;;0.70;0.70;;;;;;;;;;5049492;28;20422;-72
2023/03/06 02:02:26;;;;;;;1.43;0.80;;;;;;;;;;5048155;28;20482;-72
2023/03/06 02:04:51;;;;;;;0.90;0.67;;;;;;;;;;5050418;28;20430;-72
2023/03/06 02:07:18;;;;;;;0.70;0.70;;;;;;;;;;5051158;28;20245;-72
2023/03/06 02:09:43;;;;;;;0.70;0.70;;;;;;;;;;5065235;28;20180;-72
2023/03/06 02:12:10;;;;;;;1.00;0.50;;;;;;;;;;5038767;28;20873;-72
2023/03/06 02:14:36;;;;;;;1.80;0.60;;;;;;;;;;5050298;28;20749;-72
2023/03/06 02:17:02;;;;;;;0.60;0.50;;;;;;;;;;5046582;28;20437;-72
2023/03/06 02:19:30;;;;;;;0.60;0.60;;;;;;;;;;5047953;28;20433;-72
2023/03/06 02:21:55;;;;;;;0.80;0.60;;;;;;;;;;5044571;28;20199;-72
2023/03/06 02:24:33;;;;;;;0.80;0.60;;;;;;;;;;5048696;28;20904;-72
2023/03/06 02:26:59;;;;;;;1.50;0.70;;;;;;;;;;5049513;28;20863;-72
2023/03/06 02:29:26;;;;;;;1.10;0.70;;;;;;;;;;5047339;28;20410;-72
2023/03/06 02:31:51;;;;;;;0.77;0.60;;;;;;;;;;5047968;28;20437;-72
2023/03/06 02:34:19;;;;;;;1.13;0.63;;;;;;;;;;5048900;28;20512;-72
2023/03/06 02:36:47;;;;;;;0.63;0.63;;;;;;;;;;5048757;28;20172;-72
2023/03/06 02:39:13;;;;;;;0.93;0.60;;;;;;;;;;5045523;28;20501;-72
2023/03/06 02:41:38;;;;;;;0.70;0.60;;;;;;;;;;5048867;28;20850;-72
2023/03/06 02:44:03;;;;;;;1.90;0.70;;;;;;;;;;5050738;28;20395;-72
2023/03/06 02:46:28;;;;;;;0.80;0.70;;;;;;;;;;5047321;28;20187;-72
2023/03/06 02:48:54;;;;;;;1.20;0.77;;;;;;;;;;5047195;28;20271;-72
2023/03/06 02:51:19;;;;;;;1.00;0.60;;;;;;;;;;5045501;28;20286;-72
2023/03/06 02:53:44;;;;;;;1.13;0.73;;;;;;;;;;5048408;28;20187;-72
2023/03/06 02:56:10;;;;;;;0.70;0.70;;;;;;;;;;5050598;28;20235;-72
2023/03/06 02:58:35;;;;;;;1.83;0.70;;;;;;;;;;5049426;28;20262;-72
2023/03/06 03:01:00;;;;;;;0.70;0.70;;;;;;;;;;5047426;28;20188;-72
2023/03/06 03:03:26;;;;;;;1.03;0.70;;;;;;;;;;5048912;28;20179;-72
2023/03/06 03:05:51;;;;;;;0.80;0.60;;;;;;;;;;5048234;28;20221;-72
2023/03/06 03:08:16;;;;;;;1.57;0.67;;;;;;;;;;5048488;28;20267;-72
2023/03/06 03:10:42;;;;;;;0.80;0.73;;;;;;;;;;5047357;28;20481;-72
2023/03/06 03:13:07;;;;;;;1.73;0.70;;;;;;;;;;5046453;28;20184;-72
2023/03/06 03:15:32;;;;;;;0.60;0.60;;;;;;;;;;5049458;28;20681;-72
2023/03/06 03:17:58;;;;;;;1.10;0.70;;;;;;;;;;5044127;28;20198;-72
2023/03/06 03:20:23;;;;;;;0.80;0.70;;;;;;;;;;5043611;28;20204;-72
2023/03/06 03:22:53;;;;;;;0.80;0.70;;;;;;;;;;5044364;28;20202;-72
2023/03/06 03:25:19;;;;;;;1.67;0.80;;;;;;;;;;5044422;28;20724;-72
2023/03/06 03:27:45;;;;;;;1.10;1.00;;;;;;;;;;5041260;28;20462;-72
2023/03/06 03:30:10;;;;;;;1.27;0.90;;;;;;;;;;5042657;28;20190;-72
2023/03/06 03:32:35;;;;;;;1.13;0.93;;;;;;;;;;5048674;28;20175;-72
2023/03/06 03:35:01;;;;;;;1.43;1.03;;;;;;;;;;5045793;28;20634;-72
2023/03/06 03:37:26;;;;;;;0.80;0.80;;;;;;;;;;5045489;28;20184;-72
2023/03/06 03:39:51;;;;;;;1.30;0.90;;;;;;;;;;5048953;28;20199;-72
2023/03/06 03:42:17;;;;;;;1.10;1.00;;;;;;;;;;5046941;28;20727;-72
2023/03/06 03:44:42;;;;;;;1.00;0.93;;;;;;;;;;5047072;28;20187;-72
2023/03/06 03:47:07;;;;;;;1.20;1.00;;;;;;;;;;5046492;28;20195;-72
2023/03/06 03:49:32;;;;;;;1.20;1.10;;;;;;;;;;5047561;28;20183;-72
2023/03/06 03:51:58;;;;;;;1.10;0.90;;;;;;;;;;5048665;28;20207;-72
2023/03/06 03:54:23;;;;;;;1.93;1.00;;;;;;;;;;5047663;28;20710;-72
2023/03/06 03:56:48;;;;;;;1.17;1.07;;;;;;;;;;5044413;28;20187;-72
2023/03/06 03:59:14;;;;;;;2.37;1.40;;;;;;;;;;5046574;28;20206;-72
2023/03/06 04:01:39;;;;;;;1.43;1.00;;;;;;;;;;5041558;28;20199;-72
2023/03/06 04:04:04;;;;;;;2.03;1.03;;;;;;;;;;5042781;28;20191;-72
2023/03/06 04:06:29;;;;;;;1.00;0.90;;;;;;;;;;5045395;28;20168;-72
2023/03/06 04:08:56;;;;;;;1.60;0.90;;;;;;;;;;5041032;28;20579;-72
2023/03/06 04:11:21;;;;;;;1.90;1.10;;;;;;;;;;5043721;28;20446;-72
2023/03/06 04:13:46;;;;;;;1.30;1.20;;;;;;;;;;5041989;28;20310;-71
2023/03/06 04:16:12;;;;;;;4.20;1.50;;;;;;;;;;5042148;28;20298;-72
2023/03/06 04:18:37;;;;;;;1.10;0.80;;;;;;;;;;5045681;28;20183;-72
2023/03/06 04:21:02;;;;;;;1.10;0.90;;;;;;;;;;5049156;28;20219;-72
2023/03/06 04:23:28;;;;;;;2.90;1.20;;;;;;;;;;5043651;28;20657;-72
2023/03/06 04:25:53;;;;;;;2.50;1.00;;;;;;;;;;5043682;28;20261;-72
2023/03/06 04:28:18;;;;;;;2.37;1.13;;;;;;;;;;5041946;28;20268;-72
2023/03/06 04:30:44;;;;;;;1.10;1.00;;;;;;;;;;5038864;28;20212;-72
2023/03/06 04:33:09;;;;;;;2.10;1.07;;;;;;;;;;5041281;28;20194;-72
2023/03/06 04:35:35;;;;;;;1.20;1.10;;;;;;;;;;5039141;28;20200;-72
2023/03/06 04:38:00;;;;;;;2.53;1.10;;;;;;;;;;5040436;28;20564;-72
2023/03/06 04:40:27;;;;;;;1.03;0.80;;;;;;;;;;5042023;28;20215;-72
2023/03/06 04:42:53;;;;;;;2.93;1.23;;;;;;;;;;5044140;28;20176;-71
2023/03/06 04:45:18;;;;;;;1.43;0.97;;;;;;;;;;5043294;28;20441;-72
2023/03/06 04:47:43;;;;;;;2.30;0.90;;;;;;;;;;5039232;28;20960;-72
2023/03/06 04:50:09;;;;;;;1.13;1.00;;;;;;;;;;5041488;28;20194;-72
2023/03/06 04:52:34;;;;;;;1.30;0.90;;;;;;;;;;5042160;28;20183;-72
2023/03/06 04:55:00;;;;;;;2.73;1.10;;;;;;;;;;5039088;28;20196;-72
2023/03/06 04:57:25;;;;;;;3.10;0.80;;;;;;;;;;5041746;28;20551;-71
2023/03/06 04:59:50;;;;;;;3.37;1.23;;;;;;;;;;5039653;28;20536;-72
2023/03/06 05:02:18;;;;;;;2.60;1.13;;;;;;;;;;5042034;28;20207;-72
2023/03/06 05:04:43;;;;;;;1.97;0.87;;;;;;;;;;5039360;28;20186;-71
2023/03/06 05:07:09;;;;;;;1.37;0.80;;;;;;;;;;5042033;28;20430;-72
2023/03/06 05:09:35;;;;;;;0.97;0.90;;;;;;;;;;5038132;28;20179;-72
2023/03/06 05:12:02;;;;;;;1.80;0.80;;;;;;;;;;5054493;28;20242;-72
2023/03/06 05:14:31;;;;;;;2.10;0.97;;;;;;;;;;5043310;28;20209;-71
2023/03/06 05:16:56;;;;;;;2.83;1.07;;;;;;;;;;5039968;28;21314;-72
2023/03/06 05:19:21;;;;;;;1.60;1.00;;;;;;;;;;5040299;28;20442;-72
2023/03/06 05:21:46;;;;;;;3.27;0.80;;;;;;;;;;5042299;28;20215;-72
2023/03/06 05:24:12;;;;;;;2.07;1.07;;;;;;;;;;5040614;28;20187;-72
2023/03/06 05:26:37;;;;;;;1.53;0.90;;;;;;;;;;5044497;28;20175;-72
2023/03/06 05:29:02;;;;;;;2.10;1.17;;;;;;;;;;5039088;28;20334;-72
2023/03/06 05:31:28;;;;;;;2.57;1.10;;;;;;;;;;5039164;28;20234;-71
2023/03/06 05:33:53;;;;;;;2.83;1.00;;;;;;;;;;5038238;28;20341;-72
2023/03/06 05:36:18;;;;;;;1.10;1.00;;;;;;;;;;5041034;28;20230;-71
2023/03/06 05:38:44;;;;;;;2.03;0.90;;;;;;;;;;5047504;28;20960;-72
2023/03/06 05:41:12;;;;;;;1.70;1.00;;;;;;;;;;5045635;28;20196;-72
2023/03/06 05:43:38;;;;;;;2.60;1.10;;;;;;;;;;5046498;28;20207;-72
2023/03/06 05:46:04;;;;;;;1.43;1.33;;;;;;;;;;5044354;28;20441;-72
2023/03/06 05:48:30;;;;;;;3.00;1.07;;;;;;;;;;5041548;28;20254;-72
2023/03/06 05:50:55;;;;;;;1.30;1.00;;;;;;;;;;5043872;28;20498;-72
2023/03/06 05:53:21;;;;;;;1.43;1.10;;;;;;;;;;5044180;28;20665;-72
2023/03/06 05:55:54;;;;;;;1.60;1.20;;;;;;;;;;5044543;28;20210;-72
2023/03/06 05:58:19;;;;;;;1.47;1.20;;;;;;;;;;5045963;28;20180;-72
2023/03/06 06:00:44;;;;;;;1.33;0.83;;;;;;;;;;5047438;28;20441;-72
2023/03/06 06:03:09;;;;;;;2.50;1.23;;;;;;;;;;5045529;28;20182;-72
2023/03/06 06:05:37;;;;;;;3.10;1.07;;;;;;;;;;5046196;28;20207;-72
2023/03/06 06:08:02;;;;;;;1.70;1.10;;;;;;;;;;5041040;28;20933;-72
2023/03/06 06:10:28;;;;;;;1.10;1.00;;;;;;;;;;5040397;28;20470;-72
2023/03/06 06:12:53;;;;;;;2.03;1.10;;;;;;;;;;5043713;28;20187;-72
2023/03/06 06:15:18;;;;;;;1.63;0.93;;;;;;;;;;5046682;28;20674;-72
2023/03/06 06:17:44;;;;;;;1.43;0.83;;;;;;;;;;5039223;28;20224;-72
2023/03/06 06:20:09;;;;;;;2.27;1.40;;;;;;;;;;5043496;28;20186;-72
2023/03/06 06:22:36;;;;;;;2.57;1.80;;;;;;;;;;5047254;28;20215;-72
2023/03/06 06:25:01;;;;;;;2.23;1.37;;;;;;;;;;5048069;28;20228;-72
2023/03/06 06:27:27;;;;;;;2.30;1.53;;;;;;;;;;5045446;28;20446;-72
2023/03/06 06:29:52;;;;;;;1.37;1.20;;;;;;;;;;5049093;28;20265;-72
2023/03/06 06:32:18;;;;;;;3.03;1.67;;;;;;;;;;5044782;28;20527;-72
2023/03/06 06:34:45;;;;;;;2.13;1.80;;;;;;;;;;5050030;28;20195;-72
2023/03/06 06:37:11;;;;;;;2.43;1.60;;;;;;;;;;5046585;28;20186;-72
2023/03/06 06:39:36;;;;;;;4.03;1.73;;;;;;;;;;5049298;28;20818;-72
2023/03/06 06:42:01;;;;;;;2.77;2.20;;;;;;;;;;5040565;28;20539;-72
2023/03/06 06:44:26;;;;;;;3.47;2.17;;;;;;;;;;5043693;28;20187;-72
2023/03/06 06:46:52;;;;;;;3.80;2.90;;;;;;;;;;5047155;28;20184;-72
2023/03/06 06:49:17;;;;;;;4.90;2.20;;;;;;;;;;5045445;28;20609;-72
2023/03/06 06:51:42;;;;;;;3.50;3.20;;;;;;;;;;5050206;28;20199;-72
2023/03/06 06:54:08;;;;;;;5.40;4.20;;;;;;;;;;5048120;28;20214;-72
2023/03/06 06:56:34;;;;;;;5.57;3.30;;;;;;;;;;5032455;28;20182;-72
2023/03/06 06:59:00;;;;;;;8.60;3.50;;;;;;;;;;5048701;28;20406;-72
2023/03/06 07:01:26;;;;;;;3.10;2.80;;;;;;;;;;5048470;28;20200;-72
2023/03/06 07:03:51;;;;;;;6.30;2.87;;;;;;;;;;5054453;22;20555;-67
2023/03/06 07:06:16;;;;;;;6.53;2.97;;;;;;;;;;5045934;28;20249;-67
2023/03/06 07:08:42;;;;;;;3.63;1.83;;;;;;;;;;5045453;28;20638;-67
2023/03/06 07:11:11;;;;;;;3.43;2.53;;;;;;;;;;5046764;28;20242;-67
2023/03/06 07:13:36;;;;;;;2.23;2.03;;;;;;;;;;5045569;28;20194;-67
2023/03/06 07:16:02;;;;;;;6.50;1.80;;;;;;;;;;5044264;28;20458;-67
2023/03/06 07:18:27;;;;;;;3.90;2.00;;;;;;;;;;5045537;28;20176;-67
2023/03/06 07:20:53;;;;;;;4.83;1.90;;;;;;;;;;5047758;28;20168;-67
2023/03/06 07:23:18;;;;;;;4.37;1.70;;;;;;;;;;5045835;28;20203;-70
2023/03/06 07:25:43;;;;;;;1.90;1.60;;;;;;;;;;5047582;28;20179;-68
2023/03/06 07:28:08;;;;;;;3.60;1.70;;;;;;;;;;5047721;28;20180;-67
2023/03/06 07:30:34;;;;;;;4.07;1.70;;;;;;;;;;5049099;28;20176;-67
2023/03/06 07:32:59;;;;;;;4.37;1.50;;;;;;;;;;5043002;28;20220;-67
2023/03/06 07:35:24;;;;;;;2.83;1.57;;;;;;;;;;5043354;28;20202;-68
2023/03/06 07:37:50;;;;;;;1.80;1.50;;;;;;;;;;5048302;28;20219;-68
2023/03/06 07:40:16;;;;;;;4.50;1.60;;;;;;;;;;5047103;28;20180;-68
2023/03/06 07:42:41;;;;;;;2.90;1.40;;;;;;;;;;5049865;28;20310;-68
2023/03/06 07:45:07;;;;;;;3.67;1.30;;;;;;;;;;5049214;28;20410;-68
2023/03/06 07:47:33;;;;;;;2.03;1.60;;;;;;;;;;5049894;28;20183;-68
2023/03/06 07:50:01;;;;;;;1.77;1.33;;;;;;;;;;5045250;28;20438;-68
2023/03/06 07:52:27;;;;;;;2.70;1.30;;;;;;;;;;5046828;28;20199;-68
2023/03/06 07:54:52;;;;;;;2.30;1.20;;;;;;;;;;5045034;28;20812;-68
2023/03/06 07:57:17;;;;;;;2.13;1.23;;;;;;;;;;5044535;28;20176;-68
2023/03/06 07:59:45;;;;;;;2.90;1.43;;;;;;;;;;5044008;28;20398;-68
2023/03/06 08:02:11;;;;;;;6.67;1.43;;;;;;;;;;5048192;28;21078;-69
2023/03/06 08:04:36;;;;;;;2.13;1.63;;;;;;;;;;5047126;28;20422;-68
2023/03/06 08:07:04;;;;;;;3.13;1.30;;;;;;;;;;5050542;28;20666;-68
2023/03/06 08:09:29;;;;;;;1.40;1.17;;;;;;;;;;5045871;28;20191;-68
2023/03/06 08:11:57;;;;;;;3.20;1.80;;;;;;;;;;5049319;28;20434;-68
2023/03/06 08:14:22;;;;;;;2.10;1.60;;;;;;;;;;5041861;28;20188;-68
2023/03/06 08:16:49;;;;;;;2.27;1.43;;;;;;;;;;5040451;28;20449;-68
2023/03/06 08:19:15;;;;;;;2.93;1.73;;;;;;;;;;5039159;28;20700;-68
2023/03/06 08:21:40;;;;;;;4.10;1.60;;;;;;;;;;5045427;28;20426;-68
2023/03/06 08:24:05;;;;;;;4.43;1.70;;;;;;;;;;5047510;28;20287;-68
2023/03/06 08:26:31;;;;;;;4.77;1.40;;;;;;;;;;5047824;28;20217;-68
2023/03/06 08:28:58;;;;;;;1.90;1.60;;;;;;;;;;5047266;28;20172;-68
2023/03/06 08:31:23;;;;;;;3.33;1.60;;;;;;;;;;5047499;28;20194;-68
2023/03/06 08:33:48;;;;;;;2.60;1.40;;;;;;;;;;5044849;28;20470;-68
2023/03/06 08:36:13;;;;;;;3.73;1.13;;;;;;;;;;5048421;28;20206;-67
2023/03/06 08:38:39;;;;;;;3.53;1.20;;;;;;;;;;5047350;28;20176;-68
2023/03/06 08:41:04;;;;;;;1.63;1.23;;;;;;;;;;5044749;28;20597;-68
2023/03/06 08:43:29;;;;;;;1.97;1.03;;;;;;;;;;5047570;28;20222;-68
2023/03/06 08:45:55;;;;;;;2.07;1.57;;;;;;;;;;5046214;28;20193;-68
2023/03/06 08:48:20;;;;;;;1.20;1.10;;;;;;;;;;5047369;28;20238;-68
2023/03/06 08:50:46;;;;;;;4.07;1.43;;;;;;;;;;5046110;28;20202;-69
2023/03/06 08:53:11;;;;;;;3.20;1.00;;;;;;;;;;5040444;28;20203;-69
2023/03/06 08:55:37;;;;;;;3.60;1.50;;;;;;;;;;5046210;28;20204;-69
2023/03/06 08:58:03;;;;;;;2.40;1.37;;;;;;;;;;5046209;28;20203;-69
2023/03/06 09:00:28;;;;;;;1.10;1.00;;;;;;;;;;5046706;28;20238;-69
2023/03/06 09:02:53;;;;;;;3.00;1.50;;;;;;;;;;5047581;28;21095;-69
2023/03/06 09:05:19;;;;;;;4.23;1.17;;;;;;;;;;5048227;28;20217;-69
2023/03/06 09:07:44;;;;;;;3.37;1.50;;;;;;;;;;5047097;28;20187;-71
2023/03/06 09:10:14;;;;;;;3.03;1.37;;;;;;;;;;5045086;28;20187;-69
2023/03/06 09:12:40;;;;;;;1.70;1.27;;;;;;;;;;5041292;28;20678;-69
2023/03/06 09:15:05;;;;;;;3.10;1.50;;;;;;;;;;5040218;28;20472;-69
2023/03/06 09:17:31;;;;;;;3.67;1.40;;;;;;;;;;5045199;28;20175;-69
2023/03/06 09:19:56;;;;;;;5.80;1.53;;;;;;;;;;5046318;28;20529;-69
2023/03/06 09:22:21;;;;;;;3.73;1.30;;;;;;;;;;5045355;28;20199;-69
2023/03/06 09:24:46;;;;;;;3.53;1.57;;;;;;;;;;5044776;28;20188;-69
2023/03/06 09:27:12;;;;;;;5.87;1.73;;;;;;;;;;5047160;28;20191;-69
2023/03/06 09:29:37;;;;;;;2.40;1.33;;;;;;;;;;5046351;28;20189;-69
2023/03/06 09:32:02;;;;;;;2.93;1.60;;;;;;;;;;5046241;28;20650;-69
2023/03/06 09:34:28;;;;;;;2.27;1.77;;;;;;;;;;5044383;28;20221;-69
2023/03/06 09:36:53;;;;;;;1.73;1.40;;;;;;;;;;5046901;28;20180;-69
2023/03/06 09:39:18;;;;;;;1.80;1.50;;;;;;;;;;5043768;28;20171;-69
2023/03/06 09:41:45;;;;;;;3.23;1.40;;;;;;;;;;5047918;28;20178;-69
2023/03/06 09:44:10;;;;;;;3.53;1.13;;;;;;;;;;5047759;28;20239;-69
2023/03/06 09:46:54;;;;;;;4.90;1.40;;;;;;;;;;5038348;28;20477;-69
2023/03/06 09:49:38;;;;;;;0.97;0.70;;;;;;;;;;5044665;28;20183;-69
2023/03/06 09:52:27;;;;;;;1.90;0.90;;;;;;;;;;5048989;28;20913;-69
2023/03/06 09:54:54;;;;;;;1.23;0.87;;;;;;;;;;5064531;28;20457;-69
2023/03/06 09:57:36;;;;;;;3.43;0.90;;;;;;;;;;5052134;28;20434;-69
2023/03/06 10:00:05;;;;;;;4.00;1.00;;;;;;;;;;5051742;28;20418;-69
2023/03/06 10:02:39;;;;;;;2.10;0.90;;;;;;;;;;5049701;28;20454;-69
2023/03/06 10:05:09;;;;;;;2.23;0.73;;;;;;;;;;5048158;28;20552;-69
2023/03/06 10:07:54;;;;;;;3.07;1.00;;;;;;;;;;5044086;28;20512;-69
2023/03/06 10:10:23;;;;;;;3.63;0.90;;;;;;;;;;5046428;28;20425;-68
2023/03/06 10:12:59;;;;;;;2.10;0.93;;;;;;;;;;5046628;28;20438;-68
2023/03/06 10:15:26;;;;;;;0.90;0.63;;;;;;;;;;5049081;28;20854;-68
2023/03/06 10:17:52;;;;;;;1.20;0.70;;;;;;;;;;5050259;28;20552;-69
2023/03/06 10:20:25;;;;;;;9.20;1.07;;;;;;;;;;5048466;28;20520;-69
2023/03/06 10:23:15;;;;;;;2.93;0.90;;;;;;;;;;5050356;28;20192;-69
2023/03/06 10:26:02;;;;;;;2.60;0.80;;;;;;;;;;5049962;28;20418;-69
2023/03/06 10:28:35;;;;;;;4.10;0.90;;;;;;;;;;5046266;28;20417;-68
2023/03/06 10:31:04;;;;;;;1.37;0.60;;;;;;;;;;5048700;28;20441;-68
2023/03/06 10:33:30;;;;;;;1.90;0.60;;;;;;;;;;5049633;28;20523;-69
2023/03/06 10:35:55;;;;;;;1.43;0.80;;;;;;;;;;5048584;28;20469;-69
2023/03/06 10:38:25;;;;;;;3.90;0.90;;;;;;;;;;5049418;28;20183;-68
2023/03/06 10:41:09;;;;;;;4.50;1.10;;;;;;;;;;5048606;28;20772;-69
2023/03/06 10:43:35;;;;;;;1.43;0.70;;;;;;;;;;5045518;28;20454;-68
2023/03/06 10:46:00;;;;;;;3.77;0.60;;;;;;;;;;5050520;28;20415;-69
2023/03/06 10:48:27;;;;;;;2.93;0.77;;;;;;;;;;5049943;28;20176;-69
2023/03/06 10:51:07;;;;;;;4.20;0.70;;;;;;;;;;5049755;28;20180;-69
2023/03/06 10:53:33;;;;;;;2.13;0.70;;;;;;;;;;5050862;28;20457;-68
2023/03/06 10:55:58;;;;;;;2.83;0.80;;;;;;;;;;5049550;28;20876;-69
2023/03/06 10:58:24;;;;;;;1.00;0.83;;;;;;;;;;5043481;28;20183;-68
2023/03/06 11:01:04;;;;;;;1.73;1.00;;;;;;;;;;5044619;28;20179;-69
2023/03/06 11:03:29;;;;;;;1.43;0.80;;;;;;;;;;5046032;28;20211;-69
2023/03/06 11:05:57;;;;;;;2.57;0.70;;;;;;;;;;5043257;28;20533;-68
2023/03/06 11:08:22;;;;;;;1.33;0.77;;;;;;;;;;5046919;28;20188;-68
2023/03/06 11:10:58;;;;;;;2.20;0.70;;;;;;;;;;5048659;28;20974;-68
2023/03/06 11:13:25;;;;;;;3.03;0.83;;;;;;;;;;5053672;28;20199;-69
2023/03/06 11:16:00;;;;;;;2.60;0.70;;;;;;;;;;5046083;28;20553;-69
2023/03/06 11:18:29;;;;;;;5.80;1.10;;;;;;;;;;5045910;28;20433;-69
2023/03/06 11:20:55;;;;;;;1.50;1.10;;;;;;;;;;5048603;28;20438;-68
2023/03/06 11:23:39;;;;;;;2.53;0.87;;;;;;;;;;5049561;28;20462;-69
2023/03/06 11:26:16;;;;;;;2.00;0.70;;;;;;;;;;5046081;28;20646;-68
2023/03/06 11:28:53;;;;;;;1.30;0.70;;;;;;;;;;5048939;28;20889;-68
2023/03/06 11:31:21;;;;;;;3.37;0.90;;;;;;;;;;5049277;28;20493;-69
2023/03/06 11:33:57;;;;;;;1.23;0.60;;;;;;;;;;5049650;28;20445;-68
2023/03/06 11:36:28;;;;;;;2.10;0.90;;;;;;;;;;5048990;28;20503;-68
2023/03/06 11:38:53;;;;;;;1.60;0.80;;;;;;;;;;5049091;28;20465;-69
2023/03/06 11:41:28;;;;;;;1.70;0.80;;;;;;;;;;5050224;28;20909;-68
2023/03/06 11:43:59;;;;;;;1.10;0.73;;;;;;;;;;5042011;28;20199;-68
2023/03/06 11:46:31;;;;;;;4.33;0.90;;;;;;;;;;5063216;28;20797;-68
2023/03/06 11:49:01;;;;;;;1.73;0.73;;;;;;;;;;5047068;28;20502;-68
2023/03/06 11:51:29;;;;;;;2.20;0.87;;;;;;;;;;5049768;28;20419;-69
2023/03/06 11:53:57;;;;;;;4.63;0.80;;;;;;;;;;5049393;28;20438;-68
2023/03/06 11:56:41;;;;;;;1.43;0.80;;;;;;;;;;5049739;28;20458;-69
2023/03/06 11:59:06;;;;;;;2.80;0.70;;;;;;;;;;5042818;28;20417;-68
2023/03/06 12:01:40;;;;;;;1.80;0.70;;;;;;;;;;5049568;28;20410;-69
2023/03/06 12:04:09;;;;;;;1.90;0.70;;;;;;;;;;5044499;28;20219;-69
2023/03/06 12:06:40;;;;;;;1.73;0.70;;;;;;;;;;5048978;28;20931;-69
2023/03/06 12:09:16;;;;;;;1.37;0.70;;;;;;;;;;5047892;28;20418;-70
2023/03/06 12:11:47;;;;;;;2.20;0.70;;;;;;;;;;5048928;28;20414;-68
2023/03/06 12:14:27;;;;;;;4.63;0.60;;;;;;;;;;5044952;28;21197;-69
2023/03/06 12:17:02;;;;;;;0.80;0.53;;;;;;;;;;5044402;28;20448;-69
2023/03/06 12:19:32;;;;;;;4.53;0.77;;;;;;;;;;5039055;28;20916;-69
2023/03/06 12:22:17;;;;;;;1.77;0.60;;;;;;;;;;5047927;28;20921;-68
2023/03/06 12:24:42;;;;;;;2.37;0.70;;;;;;;;;;5046893;28;20429;-68
2023/03/06 12:27:25;;;;;;;4.00;0.80;;;;;;;;;;5044777;28;20434;-68
2023/03/06 12:30:00;;;;;;;2.20;0.80;;;;;;;;;;5047311;28;20187;-69
2023/03/06 12:32:34;;;;;;;0.90;0.70;;;;;;;;;;5047130;28;21126;-69
2023/03/06 12:34:59;;;;;;;1.63;0.80;;;;;;;;;;5061779;28;20899;-69
2023/03/06 12:37:25;;;;;;;1.00;0.60;;;;;;;;;;5045339;28;20488;-68
2023/03/06 12:40:09;;;;;;;1.40;0.70;;;;;;;;;;5047551;28;20187;-68
2023/03/06 12:42:34;;;;;;;0.80;0.70;;;;;;;;;;5041378;28;20685;-69
2023/03/06 12:45:18;;;;;;;1.17;0.70;;;;;;;;;;5046251;28;20442;-70
2023/03/06 12:47:45;;;;;;;2.50;0.80;;;;;;;;;;5045638;28;20176;-69
2023/03/06 12:50:22;;;;;;;1.93;0.60;;;;;;;;;;5047052;28;20444;-69
2023/03/06 12:52:47;;;;;;;1.10;0.90;;;;;;;;;;5044962;28;20481;-70
2023/03/06 12:55:15;;;;;;;1.50;0.83;;;;;;;;;;5047933;28;20940;-70
2023/03/06 12:57:40;;;;;;;1.10;0.80;;;;;;;;;;5047537;28;20190;-70
2023/03/06 13:00:07;;;;;;;1.10;0.80;;;;;;;;;;5047680;28;20418;-69
2023/03/06 13:02:35;;;;;;;2.20;1.03;;;;;;;;;;5045329;28;20604;-70
2023/03/06 13:05:09;;;;;;;3.40;1.30;;;;;;;;;;5043761;28;20426;-70
2023/03/06 13:07:34;;;;;;;5.13;1.20;;;;;;;;;;5043008;28;20435;-69
2023/03/06 13:10:06;;;;;;;2.40;0.90;;;;;;;;;;5046545;28;20479;-69
2023/03/06 13:12:43;;;;;;;1.27;0.80;;;;;;;;;;5043556;28;20408;-69
2023/03/06 13:15:35;;;;;;;4.70;0.90;;;;;;;;;;5041384;28;20992;-69
2023/03/06 13:18:04;;;;;;;2.83;0.90;;;;;;;;;;5041910;28;20465;-70
2023/03/06 13:20:44;;;;;;;5.20;1.00;;;;;;;;;;5042105;28;20418;-70
2023/03/06 13:23:28;;;;;;;2.43;0.83;;;;;;;;;;5042863;28;20983;-69
2023/03/06 13:25:58;;;;;;;4.30;0.60;;;;;;;;;;5047615;28;20491;-69
2023/03/06 13:28:25;;;;;;;1.33;0.70;;;;;;;;;;5047548;28;20429;-69
2023/03/06 13:30:50;;;;;;;0.97;0.60;;;;;;;;;;5046650;28;20804;-69
2023/03/06 13:33:31;;;;;;;0.73;0.60;;;;;;;;;;5051135;28;20536;-69
2023/03/06 13:36:17;;;;;;;4.07;0.90;;;;;;;;;;5050266;28;20676;-69
2023/03/06 13:38:42;;;;;;;1.67;0.70;;;;;;;;;;5050343;28;20507;-69
2023/03/06 13:41:23;;;;;;;4.10;0.60;;;;;;;;;;5051917;28;20442;-69
2023/03/06 13:43:50;;;;;;;1.30;0.70;;;;;;;;;;5049974;28;20812;-69
2023/03/06 13:46:23;;;;;;;4.40;1.00;;;;;;;;;;5051232;28;20414;-70
2023/03/06 13:49:01;;;;;;;1.47;0.70;;;;;;;;;;5049222;28;20777;-69
2023/03/06 13:51:28;;;;;;;3.50;0.83;;;;;;;;;;5047265;28;20417;-69
2023/03/06 13:54:02;;;;;;;1.30;0.67;;;;;;;;;;5045062;28;20449;-69
2023/03/06 13:56:30;;;;;;;3.37;0.90;;;;;;;;;;5049788;28;20537;-70
2023/03/06 13:59:01;;;;;;;1.80;0.93;;;;;;;;;;5047350;28;20410;-69
2023/03/06 14:01:27;;;;;;;3.20;0.70;;;;;;;;;;5042702;28;20461;-69
2023/03/06 14:03:52;;;;;;;1.90;0.80;;;;;;;;;;5050382;28;21095;-69
2023/03/06 14:06:40;;;;;;;2.00;0.77;;;;;;;;;;5050210;28;20602;-70
2023/03/06 14:09:12;;;;;;;1.53;0.80;;;;;;;;;;5048715;28;20179;-69
2023/03/06 14:11:38;;;;;;;2.13;0.90;;;;;;;;;;5050933;28;20420;-69
2023/03/06 14:14:04;;;;;;;1.17;0.67;;;;;;;;;;5050633;28;20476;-69
2023/03/06 14:16:36;;;;;;;1.87;0.90;;;;;;;;;;5049663;28;20992;-70
2023/03/06 14:19:01;;;;;;;1.57;0.90;;;;;;;;;;5046710;28;20192;-69
2023/03/06 14:21:31;;;;;;;1.43;0.80;;;;;;;;;;5050213;28;20446;-69
2023/03/06 14:23:57;;;;;;;1.50;0.70;;;;;;;;;;5050556;28;20196;-69
2023/03/06 14:26:24;;;;;;;3.03;0.80;;;;;;;;;;5050492;28;20414;-69
2023/03/06 14:28:54;;;;;;;1.70;0.70;;;;;;;;;;5049583;28;20410;-69
2023/03/06 14:31:21;;;;;;;1.10;0.70;;;;;;;;;;5051023;28;20460;-70
2023/03/06 14:33:50;;;;;;;1.10;0.70;;;;;;;;;;5046939;28;20430;-70
2023/03/06 14:36:18;;;;;;;1.70;0.80;;;;;;;;;;5047871;28;21006;-69
2023/03/06 14:38:48;;;;;;;1.20;0.70;;;;;;;;;;5047494;28;20524;-70
2023/03/06 14:41:21;;;;;;;2.40;0.70;;;;;;;;;;5046833;28;20425;-70
2023/03/06 14:43:46;;;;;;;2.13;0.80;;;;;;;;;;5044415;28;20470;-70
2023/03/06 14:46:17;;;;;;;1.47;0.67;;;;;;;;;;5038605;28;20533;-70